EDDB

Berlin-Schönefeld International Airport

Berlin, Germany
METAR EDDB 251450Z 32008KT 280V360 CAVOK 14/01 Q1036 NOSIG
Observed Flight Rules
Sep-25 @ 14:50 UTC (36 minutes ago) Visual Flight Rules
Wind Visibility Clouds
320° at 8 knots 10,000+ meters
  • Clear skies
Temperatures Readings
Current 14°C / 57°F
Dewpoint 1°C / 34°F
Humidity 41%
Altimeter 30.59" Hg
Pressure 1036 hPa
Elevation 48
METAR EDDB 251450Z 32008KT 280V360 CAVOK 14/01 Q1036 NOSIG
Observed Flight Rules
Sep-25 @ 14:50 UTC
(36 minutes ago)
VFR
Wind Visibility
320° at 8 knots 10,000+ meters
Clouds
  • Clear skies
Temperature Dewpoint
14°C / 57°F 1°C / 34°F
Humidity Altimeter Pressure
41% 30.59" Hg 1036 hPa